sensor_id;sensor_type;location;lat;lon;timestamp;temperature;humidity
6662;DHT22;3367;48.714;8.994;2024-03-08T00:01:15;2.90;1.00
6662;DHT22;3367;48.714;8.994;2024-03-08T00:03:44;2.80;1.00
6662;DHT22;3367;48.714;8.994;2024-03-08T00:06:11;2.80;1.00
6662;DHT22;3367;48.714;8.994;2024-03-08T00:08:37;2.80;1.00
6662;DHT22;3367;48.714;8.994;2024-03-08T00:11:04;2.80;1.00
6662;DHT22;3367;48.714;8.994;2024-03-08T00:13:32;2.80;1.00
6662;DHT22;3367;48.714;8.994;2024-03-08T00:15:59;2.70;1.00
6662;DHT22;3367;48.714;8.994;2024-03-08T00:18:27;2.70;1.00
6662;DHT22;3367;48.714;8.994;2024-03-08T00:20:55;2.60;1.00
6662;DHT22;3367;48.714;8.994;2024-03-08T00:23:22;2.70;1.00
6662;DHT22;3367;48.714;8.994;2024-03-08T00:25:50;2.60;1.00
6662;DHT22;3367;48.714;8.994;2024-03-08T00:28:16;2.60;1.00
6662;DHT22;3367;48.714;8.994;2024-03-08T00:30:45;2.60;1.00
6662;DHT22;3367;48.714;8.994;2024-03-08T00:33:12;2.50;1.00
6662;DHT22;3367;48.714;8.994;2024-03-08T00:35:39;2.50;1.00
6662;DHT22;3367;48.714;8.994;2024-03-08T00:38:06;2.50;1.00
6662;DHT22;3367;48.714;8.994;2024-03-08T00:40:33;2.50;1.00
6662;DHT22;3367;48.714;8.994;2024-03-08T00:43:00;2.50;1.00
6662;DHT22;3367;48.714;8.994;2024-03-08T00:45:29;2.40;1.00
6662;DHT22;3367;48.714;8.994;2024-03-08T00:47:57;2.40;1.00
6662;DHT22;3367;48.714;8.994;2024-03-08T00:50:24;2.40;1.00
6662;DHT22;3367;48.714;8.994;2024-03-08T00:52:51;2.40;1.00
6662;DHT22;3367;48.714;8.994;2024-03-08T00:55:17;2.40;1.00
6662;DHT22;3367;48.714;8.994;2024-03-08T00:57:44;2.40;1.00
6662;DHT22;3367;48.714;8.994;2024-03-08T01:00:11;2.40;1.00
6662;DHT22;3367;48.714;8.994;2024-03-08T01:02:38;2.30;1.00
6662;DHT22;3367;48.714;8.994;2024-03-08T01:05:07;2.30;1.00
6662;DHT22;3367;48.714;8.994;2024-03-08T01:07:34;2.30;1.00
6662;DHT22;3367;48.714;8.994;2024-03-08T01:10:01;2.30;1.00
6662;DHT22;3367;48.714;8.994;2024-03-08T01:12:28;2.30;1.00
6662;DHT22;3367;48.714;8.994;2024-03-08T01:14:56;2.30;1.00
6662;DHT22;3367;48.714;8.994;2024-03-08T01:17:23;2.30;1.00
6662;DHT22;3367;48.714;8.994;2024-03-08T01:19:50;2.20;1.00
6662;DHT22;3367;48.714;8.994;2024-03-08T01:22:20;2.20;1.00
6662;DHT22;3367;48.714;8.994;2024-03-08T01:24:48;2.20;1.00
6662;DHT22;3367;48.714;8.994;2024-03-08T01:27:14;2.20;1.00
6662;DHT22;3367;48.714;8.994;2024-03-08T01:29:41;2.10;1.00
6662;DHT22;3367;48.714;8.994;2024-03-08T01:32:08;2.10;1.00
6662;DHT22;3367;48.714;8.994;2024-03-08T01:34:35;2.10;1.00
6662;DHT22;3367;48.714;8.994;2024-03-08T01:37:02;2.00;1.00
6662;DHT22;3367;48.714;8.994;2024-03-08T01:39:30;2.00;1.00
6662;DHT22;3367;48.714;8.994;2024-03-08T01:41:57;2.00;41.50
6662;DHT22;3367;48.714;8.994;2024-03-08T01:44:24;2.00;36.90
6662;DHT22;3367;48.714;8.994;2024-03-08T01:46:53;1.90;62.00
6662;DHT22;3367;48.714;8.994;2024-03-08T01:49:21;1.90;55.00
6662;DHT22;3367;48.714;8.994;2024-03-08T01:51:49;1.90;99.90
6662;DHT22;3367;48.714;8.994;2024-03-08T01:54:18;1.80;99.90
6662;DHT22;3367;48.714;8.994;2024-03-08T01:56:47;1.80;99.90
6662;DHT22;3367;48.714;8.994;2024-03-08T01:59:15;1.80;99.90
6662;DHT22;3367;48.714;8.994;2024-03-08T02:01:42;1.80;99.90
6662;DHT22;3367;48.714;8.994;2024-03-08T02:04:09;1.70;99.90
6662;DHT22;3367;48.714;8.994;2024-03-08T02:06:36;1.70;99.90
6662;DHT22;3367;48.714;8.994;2024-03-08T02:09:04;1.70;99.90
6662;DHT22;3367;48.714;8.994;2024-03-08T02:11:33;1.80;99.90
6662;DHT22;3367;48.714;8.994;2024-03-08T02:14:02;1.70;99.90
6662;DHT22;3367;48.714;8.994;2024-03-08T02:16:29;1.70;99.90
6662;DHT22;3367;48.714;8.994;2024-03-08T02:18:56;1.70;99.90
6662;DHT22;3367;48.714;8.994;2024-03-08T02:21:24;1.70;99.90
6662;DHT22;3367;48.714;8.994;2024-03-08T02:23:51;1.70;99.90
6662;DHT22;3367;48.714;8.994;2024-03-08T02:26:18;1.60;99.90
6662;DHT22;3367;48.714;8.994;2024-03-08T02:28:45;1.60;99.90
6662;DHT22;3367;48.714;8.994;2024-03-08T02:31:12;1.60;99.90
6662;DHT22;3367;48.714;8.994;2024-03-08T02:33:39;1.60;99.90
6662;DHT22;3367;48.714;8.994;2024-03-08T02:36:06;1.60;99.90
6662;DHT22;3367;48.714;8.994;2024-03-08T02:38:34;1.60;99.90
6662;DHT22;3367;48.714;8.994;2024-03-08T02:41:01;1.60;99.90
6662;DHT22;3367;48.714;8.994;2024-03-08T02:43:29;1.60;99.90
6662;DHT22;3367;48.714;8.994;2024-03-08T02:45:55;1.50;99.90
6662;DHT22;3367;48.714;8.994;2024-03-08T02:48:22;1.50;99.90
6662;DHT22;3367;48.714;8.994;2024-03-08T02:50:49;1.50;99.90
6662;DHT22;3367;48.714;8.994;2024-03-08T02:53:17;1.50;99.90
6662;DHT22;3367;48.714;8.994;2024-03-08T02:55:46;1.50;99.90
6662;DHT22;3367;48.714;8.994;2024-03-08T02:58:12;1.40;99.90
6662;DHT22;3367;48.714;8.994;2024-03-08T03:00:40;1.40;99.90
6662;DHT22;3367;48.714;8.994;2024-03-08T03:03:07;1.40;99.90
6662;DHT22;3367;48.714;8.994;2024-03-08T03:05:34;1.40;99.90
6662;DHT22;3367;48.714;8.994;2024-03-08T03:08:01;1.40;99.90
6662;DHT22;3367;48.714;8.994;2024-03-08T03:10:29;1.30;99.90
6662;DHT22;3367;48.714;8.994;2024-03-08T03:12:57;1.30;99.90
6662;DHT22;3367;48.714;8.994;2024-03-08T03:15:24;1.30;99.90
6662;DHT22;3367;48.714;8.994;2024-03-08T03:17:51;1.30;99.90
6662;DHT22;3367;48.714;8.994;2024-03-08T03:20:18;1.30;99.90
6662;DHT22;3367;48.714;8.994;2024-03-08T03:22:52;1.20;99.90
6662;DHT22;3367;48.714;8.994;2024-03-08T03:25:19;1.20;99.90
6662;DHT22;3367;48.714;8.994;2024-03-08T03:27:51;1.20;99.90
6662;DHT22;3367;48.714;8.994;2024-03-08T03:30:23;1.20;99.90
6662;DHT22;3367;48.714;8.994;2024-03-08T03:32:52;1.20;99.90
6662;DHT22;3367;48.714;8.994;2024-03-08T03:35:20;1.10;99.90
6662;DHT22;3367;48.714;8.994;2024-03-08T03:37:48;1.20;99.90
6662;DHT22;3367;48.714;8.994;2024-03-08T03:40:27;1.10;99.90
6662;DHT22;3367;48.714;8.994;2024-03-08T03:42:53;1.10;99.90
6662;DHT22;3367;48.714;8.994;2024-03-08T03:45:20;1.10;99.90
6662;DHT22;3367;48.714;8.994;2024-03-08T03:47:48;1.10;99.90
6662;DHT22;3367;48.714;8.994;2024-03-08T03:50:15;1.10;99.90
6662;DHT22;3367;48.714;8.994;2024-03-08T03:52:42;1.10;99.90
6662;DHT22;3367;48.714;8.994;2024-03-08T03:55:09;1.00;99.90
6662;DHT22;3367;48.714;8.994;2024-03-08T03:57:37;1.00;99.90
6662;DHT22;3367;48.714;8.994;2024-03-08T04:00:06;1.00;99.90
6662;DHT22;3367;48.714;8.994;2024-03-08T04:02:36;1.00;1.00
6662;DHT22;3367;48.714;8.994;2024-03-08T04:05:05;0.90;1.00
6662;DHT22;3367;48.714;8.994;2024-03-08T04:07:32;1.00;1.00
6662;DHT22;3367;48.714;8.994;2024-03-08T04:09:59;0.90;1.00
6662;DHT22;3367;48.714;8.994;2024-03-08T04:12:25;0.90;1.00
6662;DHT22;3367;48.714;8.994;2024-03-08T04:14:54;0.90;1.00
6662;DHT22;3367;48.714;8.994;2024-03-08T04:17:21;0.80;1.00
6662;DHT22;3367;48.714;8.994;2024-03-08T04:19:49;0.80;1.00
6662;DHT22;3367;48.714;8.994;2024-03-08T04:22:17;0.80;1.00
6662;DHT22;3367;48.714;8.994;2024-03-08T04:24:46;0.80;1.00
6662;DHT22;3367;48.714;8.994;2024-03-08T04:27:13;0.80;1.00
6662;DHT22;3367;48.714;8.994;2024-03-08T04:29:40;0.80;1.00
6662;DHT22;3367;48.714;8.994;2024-03-08T04:32:07;0.80;1.00
6662;DHT22;3367;48.714;8.994;2024-03-08T04:34:34;0.70;1.00
6662;DHT22;3367;48.714;8.994;2024-03-08T04:37:01;0.70;1.00
6662;DHT22;3367;48.714;8.994;2024-03-08T04:39:29;0.70;1.00
6662;DHT22;3367;48.714;8.994;2024-03-08T04:41:58;0.70;1.00
6662;DHT22;3367;48.714;8.994;2024-03-08T04:44:26;0.70;1.00
6662;DHT22;3367;48.714;8.994;2024-03-08T04:46:52;0.60;1.00
6662;DHT22;3367;48.714;8.994;2024-03-08T04:49:19;0.60;1.00
6662;DHT22;3367;48.714;8.994;2024-03-08T04:51:47;0.60;1.00
6662;DHT22;3367;48.714;8.994;2024-03-08T04:54:14;0.60;1.00
6662;DHT22;3367;48.714;8.994;2024-03-08T04:56:42;0.60;1.00
6662;DHT22;3367;48.714;8.994;2024-03-08T04:59:08;0.60;1.00
6662;DHT22;3367;48.714;8.994;2024-03-08T05:01:35;0.60;1.00
6662;DHT22;3367;48.714;8.994;2024-03-08T05:04:03;0.50;1.00
6662;DHT22;3367;48.714;8.994;2024-03-08T05:06:31;0.50;1.00
6662;DHT22;3367;48.714;8.994;2024-03-08T05:08:58;0.50;1.00
6662;DHT22;3367;48.714;8.994;2024-03-08T05:11:25;0.50;1.00
6662;DHT22;3367;48.714;8.994;2024-03-08T05:13:53;0.40;1.00
6662;DHT22;3367;48.714;8.994;2024-03-08T05:16:21;0.40;48.30
6662;DHT22;3367;48.714;8.994;2024-03-08T05:18:49;0.40;51.90
6662;DHT22;3367;48.714;8.994;2024-03-08T05:21:16;0.30;99.90
6662;DHT22;3367;48.714;8.994;2024-03-08T05:23:45;0.30;99.90
6662;DHT22;3367;48.714;8.994;2024-03-08T05:26:12;0.30;99.90
6662;DHT22;3367;48.714;8.994;2024-03-08T05:28:39;0.30;99.90
6662;DHT22;3367;48.714;8.994;2024-03-08T05:31:07;0.30;99.90
6662;DHT22;3367;48.714;8.994;2024-03-08T05:33:34;0.30;99.90
6662;DHT22;3367;48.714;8.994;2024-03-08T05:36:01;0.30;99.90
6662;DHT22;3367;48.714;8.994;2024-03-08T05:38:28;0.30;99.90
6662;DHT22;3367;48.714;8.994;2024-03-08T05:40:54;0.30;99.90
6662;DHT22;3367;48.714;8.994;2024-03-08T05:43:21;0.20;99.90
6662;DHT22;3367;48.714;8.994;2024-03-08T05:45:48;0.20;99.90
6662;DHT22;3367;48.714;8.994;2024-03-08T05:48:16;0.20;99.90
6662;DHT22;3367;48.714;8.994;2024-03-08T05:50:44;0.20;99.90
6662;DHT22;3367;48.714;8.994;2024-03-08T05:53:10;0.20;99.90
6662;DHT22;3367;48.714;8.994;2024-03-08T05:55:37;0.20;99.90
6662;DHT22;3367;48.714;8.994;2024-03-08T05:58:04;0.20;1.00
6662;DHT22;3367;48.714;8.994;2024-03-08T06:00:33;0.10;1.00
6662;DHT22;3367;48.714;8.994;2024-03-08T06:03:01;0.20;1.00
6662;DHT22;3367;48.714;8.994;2024-03-08T06:05:30;0.20;1.00
6662;DHT22;3367;48.714;8.994;2024-03-08T06:07:56;0.20;1.00
6662;DHT22;3367;48.714;8.994;2024-03-08T06:10:23;0.20;1.00
6662;DHT22;3367;48.714;8.994;2024-03-08T06:12:50;0.20;1.00
6662;DHT22;3367;48.714;8.994;2024-03-08T06:15:17;0.20;1.00
6662;DHT22;3367;48.714;8.994;2024-03-08T06:17:46;0.20;1.00
6662;DHT22;3367;48.714;8.994;2024-03-08T06:20:13;0.30;99.90
6662;DHT22;3367;48.714;8.994;2024-03-08T06:22:41;0.30;99.90
6662;DHT22;3367;48.714;8.994;2024-03-08T06:25:10;0.30;99.90
6662;DHT22;3367;48.714;8.994;2024-03-08T06:27:39;0.40;1.00
6662;DHT22;3367;48.714;8.994;2024-03-08T06:30:08;0.40;99.90
6662;DHT22;3367;48.714;8.994;2024-03-08T06:32:36;0.50;99.90
6662;DHT22;3367;48.714;8.994;2024-03-08T06:35:03;0.50;99.90
6662;DHT22;3367;48.714;8.994;2024-03-08T06:37:31;0.60;1.00
6662;DHT22;3367;48.714;8.994;2024-03-08T06:40:01;0.70;99.90
6662;DHT22;3367;48.714;8.994;2024-03-08T06:42:28;0.80;99.90
6662;DHT22;3367;48.714;8.994;2024-03-08T06:44:59;1.00;99.90
6662;DHT22;3367;48.714;8.994;2024-03-08T06:47:30;0.90;73.20
6662;DHT22;3367;48.714;8.994;2024-03-08T06:49:57;1.00;11.20
6662;DHT22;3367;48.714;8.994;2024-03-08T06:52:24;1.10;94.80
6662;DHT22;3367;48.714;8.994;2024-03-08T06:54:50;1.20;6.80
6662;DHT22;3367;48.714;8.994;2024-03-08T06:57:19;1.30;1.00
6662;DHT22;3367;48.714;8.994;2024-03-08T06:59:47;1.40;1.00
6662;DHT22;3367;48.714;8.994;2024-03-08T07:02:14;1.30;1.00
6662;DHT22;3367;48.714;8.994;2024-03-08T07:04:40;1.40;1.00
6662;DHT22;3367;48.714;8.994;2024-03-08T07:07:07;1.50;1.00
6662;DHT22;3367;48.714;8.994;2024-03-08T07:09:35;1.40;1.00
6662;DHT22;3367;48.714;8.994;2024-03-08T07:12:01;1.40;1.00
6662;DHT22;3367;48.714;8.994;2024-03-08T07:14:30;1.50;1.00
6662;DHT22;3367;48.714;8.994;2024-03-08T07:16:57;1.60;1.00
6662;DHT22;3367;48.714;8.994;2024-03-08T07:19:24;1.70;99.90
6662;DHT22;3367;48.714;8.994;2024-03-08T07:21:50;1.70;99.90
6662;DHT22;3367;48.714;8.994;2024-03-08T07:24:17;1.70;99.90
6662;DHT22;3367;48.714;8.994;2024-03-08T07:27:04;1.70;99.90
6662;DHT22;3367;48.714;8.994;2024-03-08T07:29:33;1.80;99.90
6662;DHT22;3367;48.714;8.994;2024-03-08T07:32:00;1.90;88.30
6662;DHT22;3367;48.714;8.994;2024-03-08T07:34:40;1.90;39.30
6662;DHT22;3367;48.714;8.994;2024-03-08T07:37:06;2.00;1.00
6662;DHT22;3367;48.714;8.994;2024-03-08T07:39:37;2.10;1.00
6662;DHT22;3367;48.714;8.994;2024-03-08T07:42:04;2.10;1.00
6662;DHT22;3367;48.714;8.994;2024-03-08T07:44:32;2.10;1.00
6662;DHT22;3367;48.714;8.994;2024-03-08T07:46:59;2.20;1.00
6662;DHT22;3367;48.714;8.994;2024-03-08T07:49:26;2.30;1.00
6662;DHT22;3367;48.714;8.994;2024-03-08T07:51:53;2.30;1.00
6662;DHT22;3367;48.714;8.994;2024-03-08T07:54:28;2.30;1.00
6662;DHT22;3367;48.714;8.994;2024-03-08T07:56:58;2.20;1.00
6662;DHT22;3367;48.714;8.994;2024-03-08T07:59:25;2.50;1.00
6662;DHT22;3367;48.714;8.994;2024-03-08T08:01:53;2.50;99.90
6662;DHT22;3367;48.714;8.994;2024-03-08T08:04:20;2.60;99.90
6662;DHT22;3367;48.714;8.994;2024-03-08T08:06:50;2.60;99.90
6662;DHT22;3367;48.714;8.994;2024-03-08T08:09:17;2.60;99.90
6662;DHT22;3367;48.714;8.994;2024-03-08T08:11:54;2.70;99.90
6662;DHT22;3367;48.714;8.994;2024-03-08T08:14:20;2.80;99.90
6662;DHT22;3367;48.714;8.994;2024-03-08T08:16:47;2.70;99.90
6662;DHT22;3367;48.714;8.994;2024-03-08T08:19:18;2.90;99.90
6662;DHT22;3367;48.714;8.994;2024-03-08T08:21:46;2.80;99.90
6662;DHT22;3367;48.714;8.994;2024-03-08T08:24:12;3.00;99.90
6662;DHT22;3367;48.714;8.994;2024-03-08T08:26:39;3.10;99.90
6662;DHT22;3367;48.714;8.994;2024-03-08T08:29:06;3.10;18.00
6662;DHT22;3367;48.714;8.994;2024-03-08T08:31:33;3.10;67.40
6662;DHT22;3367;48.714;8.994;2024-03-08T08:33:59;3.20;99.90
6662;DHT22;3367;48.714;8.994;2024-03-08T08:36:27;3.30;1.00
6662;DHT22;3367;48.714;8.994;2024-03-08T08:38:55;3.40;1.00
6662;DHT22;3367;48.714;8.994;2024-03-08T08:41:24;3.40;1.00
6662;DHT22;3367;48.714;8.994;2024-03-08T08:43:51;3.40;1.00
6662;DHT22;3367;48.714;8.994;2024-03-08T08:46:18;3.30;1.00
6662;DHT22;3367;48.714;8.994;2024-03-08T08:48:47;3.30;1.00
6662;DHT22;3367;48.714;8.994;2024-03-08T08:51:14;3.40;1.00
6662;DHT22;3367;48.714;8.994;2024-03-08T08:54:00;3.40;1.00
6662;DHT22;3367;48.714;8.994;2024-03-08T08:56:27;3.20;1.00
6662;DHT22;3367;48.714;8.994;2024-03-08T08:58:56;3.40;46.10
6662;DHT22;3367;48.714;8.994;2024-03-08T09:01:36;3.40;1.00
6662;DHT22;3367;48.714;8.994;2024-03-08T09:04:36;3.50;1.00
6662;DHT22;3367;48.714;8.994;2024-03-08T09:07:18;3.60;1.00
6662;DHT22;3367;48.714;8.994;2024-03-08T09:09:50;3.60;1.00
6662;DHT22;3367;48.714;8.994;2024-03-08T09:12:26;3.40;1.00
6662;DHT22;3367;48.714;8.994;2024-03-08T09:15:03;3.60;1.00
6662;DHT22;3367;48.714;8.994;2024-03-08T09:17:33;3.60;1.00
6662;DHT22;3367;48.714;8.994;2024-03-08T09:20:01;3.70;1.00
6662;DHT22;3367;48.714;8.994;2024-03-08T09:22:30;3.80;1.00
6662;DHT22;3367;48.714;8.994;2024-03-08T09:24:58;3.90;1.00
6662;DHT22;3367;48.714;8.994;2024-03-08T09:27:26;3.70;1.00
6662;DHT22;3367;48.714;8.994;2024-03-08T09:29:54;3.70;1.00
6662;DHT22;3367;48.714;8.994;2024-03-08T09:32:21;3.90;1.00
6662;DHT22;3367;48.714;8.994;2024-03-08T09:34:48;4.10;1.00
6662;DHT22;3367;48.714;8.994;2024-03-08T09:37:15;4.10;1.00
6662;DHT22;3367;48.714;8.994;2024-03-08T09:39:43;4.20;1.00
6662;DHT22;3367;48.714;8.994;2024-03-08T09:42:16;4.30;1.00
6662;DHT22;3367;48.714;8.994;2024-03-08T09:44:46;4.30;1.00
6662;DHT22;3367;48.714;8.994;2024-03-08T09:47:14;4.30;1.00
6662;DHT22;3367;48.714;8.994;2024-03-08T09:49:42;4.30;1.00
6662;DHT22;3367;48.714;8.994;2024-03-08T09:52:10;4.30;1.00
6662;DHT22;3367;48.714;8.994;2024-03-08T09:54:38;4.40;1.00
6662;DHT22;3367;48.714;8.994;2024-03-08T09:57:06;4.20;1.00
6662;DHT22;3367;48.714;8.994;2024-03-08T09:59:36;4.30;1.00
6662;DHT22;3367;48.714;8.994;2024-03-08T10:02:15;4.40;1.00
6662;DHT22;3367;48.714;8.994;2024-03-08T10:04:42;4.50;1.00
6662;DHT22;3367;48.714;8.994;2024-03-08T10:07:11;4.40;1.00
6662;DHT22;3367;48.714;8.994;2024-03-08T10:09:38;4.40;1.00
6662;DHT22;3367;48.714;8.994;2024-03-08T10:12:06;4.60;1.00
6662;DHT22;3367;48.714;8.994;2024-03-08T10:14:39;4.80;1.00
6662;DHT22;3367;48.714;8.994;2024-03-08T10:17:06;4.80;1.00
6662;DHT22;3367;48.714;8.994;2024-03-08T10:19:33;4.80;1.00
6662;DHT22;3367;48.714;8.994;2024-03-08T10:22:00;4.80;1.00
6662;DHT22;3367;48.714;8.994;2024-03-08T10:24:30;4.90;1.00
6662;DHT22;3367;48.714;8.994;2024-03-08T10:26:59;4.90;1.00
6662;DHT22;3367;48.714;8.994;2024-03-08T10:29:27;4.90;1.00
6662;DHT22;3367;48.714;8.994;2024-03-08T10:31:55;4.90;1.00
6662;DHT22;3367;48.714;8.994;2024-03-08T10:34:22;5.10;1.00
6662;DHT22;3367;48.714;8.994;2024-03-08T10:36:51;5.10;1.00
6662;DHT22;3367;48.714;8.994;2024-03-08T10:39:23;5.20;1.00
6662;DHT22;3367;48.714;8.994;2024-03-08T10:41:53;5.00;1.00
6662;DHT22;3367;48.714;8.994;2024-03-08T10:44:36;5.00;1.00
6662;DHT22;3367;48.714;8.994;2024-03-08T10:47:15;4.90;1.00
6662;DHT22;3367;48.714;8.994;2024-03-08T10:49:54;4.80;1.00
6662;DHT22;3367;48.714;8.994;2024-03-08T10:52:21;5.00;1.00
6662;DHT22;3367;48.714;8.994;2024-03-08T10:54:48;5.30;1.00
6662;DHT22;3367;48.714;8.994;2024-03-08T10:57:18;5.40;99.90
6662;DHT22;3367;48.714;8.994;2024-03-08T10:59:47;5.50;1.00
6662;DHT22;3367;48.714;8.994;2024-03-08T11:02:18;5.60;99.90
6662;DHT22;3367;48.714;8.994;2024-03-08T11:04:46;5.80;99.90
6662;DHT22;3367;48.714;8.994;2024-03-08T11:07:14;6.10;99.90
6662;DHT22;3367;48.714;8.994;2024-03-08T11:09:44;6.30;99.90
6662;DHT22;3367;48.714;8.994;2024-03-08T11:12:22;6.20;99.90
6662;DHT22;3367;48.714;8.994;2024-03-08T11:14:51;6.20;99.90
6662;DHT22;3367;48.714;8.994;2024-03-08T11:17:27;6.60;99.90
6662;DHT22;3367;48.714;8.994;2024-03-08T11:20:10;6.70;99.90
6662;DHT22;3367;48.714;8.994;2024-03-08T11:22:48;6.80;99.90
6662;DHT22;3367;48.714;8.994;2024-03-08T11:25:36;6.60;99.90
6662;DHT22;3367;48.714;8.994;2024-03-08T11:28:10;7.00;99.90
6662;DHT22;3367;48.714;8.994;2024-03-08T11:30:42;7.20;99.90
6662;DHT22;3367;48.714;8.994;2024-03-08T11:33:12;7.30;99.90
6662;DHT22;3367;48.714;8.994;2024-03-08T11:35:40;7.30;32.80
6662;DHT22;3367;48.714;8.994;2024-03-08T11:38:11;7.10;93.30
6662;DHT22;3367;48.714;8.994;2024-03-08T11:40:39;7.30;33.50
6662;DHT22;3367;48.714;8.994;2024-03-08T11:43:07;7.30;95.20
6662;DHT22;3367;48.714;8.994;2024-03-08T11:45:34;7.60;92.10
6662;DHT22;3367;48.714;8.994;2024-03-08T11:48:03;7.70;43.60
6662;DHT22;3367;48.714;8.994;2024-03-08T11:50:32;7.10;43.60
6662;DHT22;3367;48.714;8.994;2024-03-08T11:53:03;6.70;1.00
6662;DHT22;3367;48.714;8.994;2024-03-08T11:55:30;6.50;1.00
6662;DHT22;3367;48.714;8.994;2024-03-08T11:58:02;6.40;1.00
6662;DHT22;3367;48.714;8.994;2024-03-08T12:00:29;6.30;1.00
6662;DHT22;3367;48.714;8.994;2024-03-08T12:03:05;6.20;1.00
6662;DHT22;3367;48.714;8.994;2024-03-08T12:05:34;6.20;1.00
6662;DHT22;3367;48.714;8.994;2024-03-08T12:08:01;6.10;1.00
6662;DHT22;3367;48.714;8.994;2024-03-08T12:10:28;6.20;1.00
6662;DHT22;3367;48.714;8.994;2024-03-08T12:12:57;6.30;1.00
6662;DHT22;3367;48.714;8.994;2024-03-08T12:15:25;6.30;1.00
6662;DHT22;3367;48.714;8.994;2024-03-08T12:17:54;6.30;1.00
6662;DHT22;3367;48.714;8.994;2024-03-08T12:20:23;6.30;1.00
6662;DHT22;3367;48.714;8.994;2024-03-08T12:22:52;6.50;1.00
6662;DHT22;3367;48.714;8.994;2024-03-08T12:25:22;6.40;1.00
6662;DHT22;3367;48.714;8.994;2024-03-08T12:27:48;6.40;1.00
6662;DHT22;3367;48.714;8.994;2024-03-08T12:30:19;6.30;1.00
6662;DHT22;3367;48.714;8.994;2024-03-08T12:32:50;6.50;1.00
6662;DHT22;3367;48.714;8.994;2024-03-08T12:35:19;6.60;1.00
6662;DHT22;3367;48.714;8.994;2024-03-08T12:37:48;6.70;1.00
6662;DHT22;3367;48.714;8.994;2024-03-08T12:40:18;7.00;1.00
6662;DHT22;3367;48.714;8.994;2024-03-08T12:45:35;7.00;1.00
6662;DHT22;3367;48.714;8.994;2024-03-08T12:48:02;7.10;1.00
6662;DHT22;3367;48.714;8.994;2024-03-08T12:50:29;7.10;1.00
6662;DHT22;3367;48.714;8.994;2024-03-08T12:52:56;7.20;1.00
6662;DHT22;3367;48.714;8.994;2024-03-08T12:55:30;7.20;1.00
6662;DHT22;3367;48.714;8.994;2024-03-08T12:57:58;7.30;1.00
6662;DHT22;3367;48.714;8.994;2024-03-08T13:00:26;7.20;1.00
6662;DHT22;3367;48.714;8.994;2024-03-08T13:02:53;7.10;1.00
6662;DHT22;3367;48.714;8.994;2024-03-08T13:05:27;7.10;1.00
6662;DHT22;3367;48.714;8.994;2024-03-08T13:07:59;7.20;1.00
6662;DHT22;3367;48.714;8.994;2024-03-08T13:10:26;7.20;1.00
6662;DHT22;3367;48.714;8.994;2024-03-08T13:12:54;7.30;1.00
6662;DHT22;3367;48.714;8.994;2024-03-08T13:15:22;7.20;1.00
6662;DHT22;3367;48.714;8.994;2024-03-08T13:18:01;7.40;1.00
6662;DHT22;3367;48.714;8.994;2024-03-08T13:20:31;7.50;1.00
6662;DHT22;3367;48.714;8.994;2024-03-08T13:23:04;7.40;1.00
6662;DHT22;3367;48.714;8.994;2024-03-08T13:25:32;7.40;1.00
6662;DHT22;3367;48.714;8.994;2024-03-08T13:28:03;7.60;1.00
6662;DHT22;3367;48.714;8.994;2024-03-08T13:30:31;7.60;1.00
6662;DHT22;3367;48.714;8.994;2024-03-08T13:32:58;7.40;1.00
6662;DHT22;3367;48.714;8.994;2024-03-08T13:35:25;7.50;1.00
6662;DHT22;3367;48.714;8.994;2024-03-08T13:37:52;7.60;1.00
6662;DHT22;3367;48.714;8.994;2024-03-08T13:40:19;7.70;1.00
6662;DHT22;3367;48.714;8.994;2024-03-08T13:42:47;7.80;1.00
6662;DHT22;3367;48.714;8.994;2024-03-08T13:45:16;7.90;1.00
6662;DHT22;3367;48.714;8.994;2024-03-08T13:47:48;7.80;1.00
6662;DHT22;3367;48.714;8.994;2024-03-08T13:50:15;7.80;1.00
6662;DHT22;3367;48.714;8.994;2024-03-08T13:52:46;7.80;1.00
6662;DHT22;3367;48.714;8.994;2024-03-08T13:55:15;7.70;1.00
6662;DHT22;3367;48.714;8.994;2024-03-08T13:57:41;7.60;1.00
6662;DHT22;3367;48.714;8.994;2024-03-08T14:00:09;7.70;1.00
6662;DHT22;3367;48.714;8.994;2024-03-08T14:02:37;7.80;1.00
6662;DHT22;3367;48.714;8.994;2024-03-08T14:05:06;7.80;1.00
6662;DHT22;3367;48.714;8.994;2024-03-08T14:07:34;7.90;1.00
6662;DHT22;3367;48.714;8.994;2024-03-08T14:10:01;7.90;1.00
6662;DHT22;3367;48.714;8.994;2024-03-08T14:12:28;8.00;1.00
6662;DHT22;3367;48.714;8.994;2024-03-08T14:14:55;7.90;1.00
6662;DHT22;3367;48.714;8.994;2024-03-08T14:17:25;7.90;1.00
6662;DHT22;3367;48.714;8.994;2024-03-08T14:19:53;7.90;1.00
6662;DHT22;3367;48.714;8.994;2024-03-08T14:22:20;8.00;1.00
6662;DHT22;3367;48.714;8.994;2024-03-08T14:24:47;7.90;1.00
6662;DHT22;3367;48.714;8.994;2024-03-08T14:27:15;7.80;1.00
6662;DHT22;3367;48.714;8.994;2024-03-08T14:29:44;7.90;1.00
6662;DHT22;3367;48.714;8.994;2024-03-08T14:32:11;7.90;1.00
6662;DHT22;3367;48.714;8.994;2024-03-08T14:34:38;8.00;1.00
6662;DHT22;3367;48.714;8.994;2024-03-08T14:37:06;8.00;1.00
6662;DHT22;3367;48.714;8.994;2024-03-08T14:39:37;7.90;1.00
6662;DHT22;3367;48.714;8.994;2024-03-08T14:42:03;7.90;1.00
6662;DHT22;3367;48.714;8.994;2024-03-08T14:44:31;8.00;1.00
6662;DHT22;3367;48.714;8.994;2024-03-08T14:46:59;7.90;1.00
6662;DHT22;3367;48.714;8.994;2024-03-08T14:49:26;7.90;1.00
6662;DHT22;3367;48.714;8.994;2024-03-08T14:51:54;8.00;1.00
6662;DHT22;3367;48.714;8.994;2024-03-08T14:54:22;8.00;1.00
6662;DHT22;3367;48.714;8.994;2024-03-08T14:56:49;8.00;1.00
6662;DHT22;3367;48.714;8.994;2024-03-08T14:59:17;8.00;1.00
6662;DHT22;3367;48.714;8.994;2024-03-08T15:01:45;8.10;1.00
6662;DHT22;3367;48.714;8.994;2024-03-08T15:04:11;8.10;1.00
6662;DHT22;3367;48.714;8.994;2024-03-08T15:06:38;8.10;1.00
6662;DHT22;3367;48.714;8.994;2024-03-08T15:09:05;8.00;1.00
6662;DHT22;3367;48.714;8.994;2024-03-08T15:11:38;8.10;1.00
6662;DHT22;3367;48.714;8.994;2024-03-08T15:14:05;8.10;1.00
6662;DHT22;3367;48.714;8.994;2024-03-08T15:16:35;8.10;1.00
6662;DHT22;3367;48.714;8.994;2024-03-08T15:19:04;8.20;1.00
6662;DHT22;3367;48.714;8.994;2024-03-08T15:21:31;8.20;1.00
6662;DHT22;3367;48.714;8.994;2024-03-08T15:23:58;8.20;1.00
6662;DHT22;3367;48.714;8.994;2024-03-08T15:26:25;8.20;1.00
6662;DHT22;3367;48.714;8.994;2024-03-08T15:28:54;8.20;1.00
6662;DHT22;3367;48.714;8.994;2024-03-08T15:31:21;8.10;1.00
6662;DHT22;3367;48.714;8.994;2024-03-08T15:33:50;8.10;1.00
6662;DHT22;3367;48.714;8.994;2024-03-08T15:36:25;8.10;1.00
6662;DHT22;3367;48.714;8.994;2024-03-08T15:38:55;8.20;1.00
6662;DHT22;3367;48.714;8.994;2024-03-08T15:41:22;8.20;1.00
6662;DHT22;3367;48.714;8.994;2024-03-08T15:43:49;8.20;1.00
6662;DHT22;3367;48.714;8.994;2024-03-08T15:46:17;8.10;1.00
6662;DHT22;3367;48.714;8.994;2024-03-08T15:48:48;8.00;1.00
6662;DHT22;3367;48.714;8.994;2024-03-08T15:51:15;8.00;1.00
6662;DHT22;3367;48.714;8.994;2024-03-08T15:53:43;8.10;1.00
6662;DHT22;3367;48.714;8.994;2024-03-08T15:56:18;8.10;1.00
6662;DHT22;3367;48.714;8.994;2024-03-08T15:58:45;8.10;1.00
6662;DHT22;3367;48.714;8.994;2024-03-08T16:01:12;8.10;1.00
6662;DHT22;3367;48.714;8.994;2024-03-08T16:03:43;8.10;1.00
6662;DHT22;3367;48.714;8.994;2024-03-08T16:06:10;8.10;1.00
6662;DHT22;3367;48.714;8.994;2024-03-08T16:08:37;8.10;1.00
6662;DHT22;3367;48.714;8.994;2024-03-08T16:11:05;8.10;1.00
6662;DHT22;3367;48.714;8.994;2024-03-08T16:13:33;8.10;1.00
6662;DHT22;3367;48.714;8.994;2024-03-08T16:16:04;8.10;1.00
6662;DHT22;3367;48.714;8.994;2024-03-08T16:18:31;8.10;1.00
6662;DHT22;3367;48.714;8.994;2024-03-08T16:21:01;8.10;1.00
6662;DHT22;3367;48.714;8.994;2024-03-08T16:23:29;8.10;1.00
6662;DHT22;3367;48.714;8.994;2024-03-08T16:25:57;8.10;1.00
6662;DHT22;3367;48.714;8.994;2024-03-08T16:28:23;8.10;1.00
6662;DHT22;3367;48.714;8.994;2024-03-08T16:30:53;8.00;1.00
6662;DHT22;3367;48.714;8.994;2024-03-08T16:33:21;8.00;1.00
6662;DHT22;3367;48.714;8.994;2024-03-08T16:35:48;8.00;1.00
6662;DHT22;3367;48.714;8.994;2024-03-08T16:38:16;8.00;1.00
6662;DHT22;3367;48.714;8.994;2024-03-08T16:40:44;7.90;1.00